Time;durP1;ratioP1;P1;durP2;ratioP2;P2;SDS_P1;SDS_P2;PMS_P1;PMS_P2;Temp;Humidity;BMP_temperature;BMP_pressure;BME280_temperature;BME280_humidity;BME280_pressure;Samples;Min_cycle;Max_cycle;Signal;HPM_P1;HPM_P2
2021/06/09 00:02:24;;;;;;;8.20;6.50;;;16.70;87.30;;;;;;5083058;28;20036;-70
2021/06/09 00:04:49;;;;;;;7.03;6.32;;;16.70;87.20;;;;;;5081397;28;20032;-71
2021/06/09 00:07:15;;;;;;;8.05;7.07;;;16.70;87.40;;;;;;5083394;28;20055;-70
2021/06/09 00:09:41;;;;;;;9.88;7.88;;;16.70;87.70;;;;;;5082071;28;20123;-71
2021/06/09 00:12:08;;;;;;;8.75;7.47;;;16.60;88.50;;;;;;5079959;28;20412;-70
2021/06/09 00:14:34;;;;;;;8.85;7.32;;;16.70;88.00;;;;;;5079896;28;20099;-71
2021/06/09 00:16:59;;;;;;;7.82;6.70;;;16.70;88.00;;;;;;5081520;28;20110;-73
2021/06/09 00:19:27;;;;;;;9.40;7.13;;;16.60;87.80;;;;;;5075448;28;20028;-70
2021/06/09 00:21:54;;;;;;;8.13;6.32;;;16.60;87.90;;;;;;5081961;28;20028;-71
2021/06/09 00:24:20;;;;;;;7.95;7.05;;;16.60;87.90;;;;;;5076799;28;20473;-71
2021/06/09 00:26:47;;;;;;;7.75;6.85;;;16.60;88.10;;;;;;5083247;28;20501;-71
2021/06/09 00:29:13;;;;;;;7.40;6.35;;;16.60;88.10;;;;;;5081456;28;20043;-70
2021/06/09 00:31:39;;;;;;;6.72;5.70;;;16.50;88.00;;;;;;5081689;28;20032;-71
2021/06/09 00:34:05;;;;;;;7.68;6.47;;;16.50;87.90;;;;;;5082624;28;20024;-71
2021/06/09 00:36:31;;;;;;;9.00;6.50;;;16.50;88.00;;;;;;5084019;28;20073;-70
2021/06/09 00:38:57;;;;;;;7.57;6.30;;;16.50;88.00;;;;;;5076066;28;20456;-70
2021/06/09 00:41:23;;;;;;;7.07;5.65;;;16.50;88.00;;;;;;5084244;28;20031;-70
2021/06/09 00:43:48;;;;;;;7.15;5.90;;;16.50;88.10;;;;;;5082303;28;20035;-71
2021/06/09 00:46:14;;;;;;;7.75;6.50;;;16.40;88.10;;;;;;5082441;28;20036;-71
2021/06/09 00:48:43;;;;;;;7.85;6.55;;;16.40;88.10;;;;;;5080842;28;20026;-70
2021/06/09 00:51:17;;;;;;;6.60;5.90;;;16.40;88.50;;;;;;5079877;28;20055;-71
2021/06/09 00:53:56;;;;;;;7.82;6.18;;;16.40;88.40;;;;;;5082735;28;20521;-71
2021/06/09 00:56:23;;;;;;;10.15;7.18;;;16.30;88.60;;;;;;5075519;28;20024;-70
2021/06/09 00:58:50;;;;;;;7.43;6.53;;;16.30;88.70;;;;;;5083123;28;20016;-72
2021/06/09 01:01:19;;;;;;;7.30;6.20;;;16.30;88.60;;;;;;5082146;28;20024;-72
2021/06/09 01:03:45;;;;;;;8.00;6.47;;;16.30;88.60;;;;;;5083283;28;20032;-70
2021/06/09 01:06:11;;;;;;;6.72;5.88;;;16.30;88.60;;;;;;5083224;28;20518;-71
2021/06/09 01:08:38;;;;;;;7.18;6.47;;;16.30;88.50;;;;;;5086464;28;20024;-71
2021/06/09 01:11:16;;;;;;;7.00;6.30;;;16.20;88.60;;;;;;5085284;28;20036;-70
2021/06/09 01:13:42;;;;;;;7.72;6.60;;;16.20;89.30;;;;;;5086696;28;20389;-70
2021/06/09 01:16:08;;;;;;;7.28;5.78;;;16.20;88.70;;;;;;5084895;28;20053;-71
2021/06/09 01:18:34;;;;;;;8.05;6.03;;;16.20;88.80;;;;;;5089236;28;20028;-72
2021/06/09 01:21:01;;;;;;;9.05;6.60;;;16.10;88.80;;;;;;5085011;28;20036;-72
2021/06/09 01:23:27;;;;;;;7.05;6.25;;;16.10;89.00;;;;;;5086889;28;20039;-72
2021/06/09 01:25:55;;;;;;;7.20;6.00;;;16.10;89.10;;;;;;5085002;28;20109;-72
2021/06/09 01:28:21;;;;;;;7.72;6.18;;;16.10;89.10;;;;;;5084126;28;20073;-72
2021/06/09 01:30:47;;;;;;;6.95;6.25;;;16.10;89.00;;;;;;5086596;28;20392;-72
2021/06/09 01:33:14;;;;;;;7.78;5.95;;;16.10;89.10;;;;;;5086568;28;20169;-72
2021/06/09 01:35:42;;;;;;;7.80;6.43;;;16.10;89.20;;;;;;5080219;28;20036;-72
2021/06/09 01:38:08;;;;;;;7.03;5.60;;;16.10;89.30;;;;;;5083066;28;20442;-72
2021/06/09 01:40:34;;;;;;;7.45;5.97;;;16.10;89.20;;;;;;5099879;28;20044;-73
2021/06/09 01:43:02;;;;;;;7.47;6.03;;;16.10;89.20;;;;;;5086401;28;20047;-73
2021/06/09 01:45:30;;;;;;;6.45;5.68;;;16.10;89.50;;;;;;5084960;28;20117;-72
2021/06/09 01:47:56;;;;;;;7.30;5.95;;;16.10;89.70;;;;;;5086226;28;20024;-71
2021/06/09 01:50:23;;;;;;;8.02;6.13;;;16.10;89.80;;;;;;5082533;28;20032;-70
2021/06/09 01:52:50;;;;;;;7.03;6.10;;;16.10;89.80;;;;;;5082695;28;20860;-71
2021/06/09 01:55:19;;;;;;;5.95;5.18;;;16.10;89.80;;;;;;5083631;28;20020;-71
2021/06/09 01:57:45;;;;;;;7.75;6.03;;;16.10;89.60;;;;;;5078844;28;20055;-71
2021/06/09 02:00:15;;;;;;;7.85;6.40;;;16.10;89.70;;;;;;5083573;28;20067;-71
2021/06/09 02:02:41;;;;;;;7.70;6.55;;;16.10;89.80;;;;;;5084811;28;20127;-71
2021/06/09 02:05:09;;;;;;;7.75;6.28;;;16.10;89.70;;;;;;5078830;28;20024;-73
2021/06/09 02:07:47;;;;;;;7.63;6.80;;;16.10;89.70;;;;;;5084870;28;20513;-73
2021/06/09 02:10:16;;;;;;;7.70;6.90;;;16.20;89.70;;;;;;5086162;28;20027;-73
2021/06/09 02:12:44;;;;;;;7.03;5.57;;;16.20;89.80;;;;;;5082846;28;20028;-73
2021/06/09 02:15:11;;;;;;;8.73;5.53;;;16.20;89.70;;;;;;5083571;28;20508;-73
2021/06/09 02:17:41;;;;;;;8.07;6.13;;;16.20;89.70;;;;;;5082729;28;20132;-73
2021/06/09 02:20:07;;;;;;;6.97;5.90;;;16.20;89.60;;;;;;5077602;28;20466;-73
2021/06/09 02:22:35;;;;;;;7.70;6.53;;;16.20;89.50;;;;;;5082502;28;20032;-73
2021/06/09 02:25:03;;;;;;;7.30;5.68;;;16.20;89.60;;;;;;5079866;28;20036;-73
2021/06/09 02:27:29;;;;;;;7.65;6.63;;;16.20;89.50;;;;;;5083171;28;20036;-72
2021/06/09 02:29:55;;;;;;;7.53;6.13;;;16.20;89.50;;;;;;5082148;28;20409;-73
2021/06/09 02:32:20;;;;;;;6.90;5.75;;;16.20;89.50;;;;;;5083873;28;20036;-73
2021/06/09 02:34:46;;;;;;;7.00;5.72;;;16.30;89.50;;;;;;5086140;28;20024;-73
2021/06/09 02:37:12;;;;;;;8.15;6.22;;;16.30;89.40;;;;;;5085728;28;20023;-73
2021/06/09 02:39:38;;;;;;;6.10;5.50;;;16.30;89.40;;;;;;5080373;28;20047;-73
2021/06/09 02:42:04;;;;;;;7.85;6.15;;;16.30;89.30;;;;;;5084631;28;20036;-73
2021/06/09 02:44:30;;;;;;;9.25;5.68;;;16.40;89.30;;;;;;5084609;28;20020;-73
2021/06/09 02:46:58;;;;;;;7.00;5.85;;;16.40;89.20;;;;;;5084465;28;20016;-73
2021/06/09 02:49:27;;;;;;;6.72;5.65;;;16.40;89.10;;;;;;5085547;28;20110;-73
2021/06/09 02:52:03;;;;;;;7.53;5.25;;;16.50;89.10;;;;;;5084674;28;20039;-73
2021/06/09 02:54:46;;;;;;;6.63;5.57;;;16.50;89.00;;;;;;5082368;28;20133;-73
2021/06/09 02:57:33;;;;;;;5.88;4.85;;;16.50;88.90;;;;;;5083798;28;20031;-73
2021/06/09 03:00:13;;;;;;;8.77;5.60;;;16.50;88.70;;;;;;5083282;28;20118;-73
2021/06/09 03:03:10;;;;;;;6.75;5.43;;;16.60;88.60;;;;;;5080805;28;20028;-73
2021/06/09 03:05:42;;;;;;;5.70;5.03;;;16.60;88.40;;;;;;5084887;28;20047;-73
2021/06/09 03:08:39;;;;;;;6.43;5.20;;;16.70;88.40;;;;;;5083848;28;20031;-73
2021/06/09 03:11:37;;;;;;;6.78;5.53;;;16.80;88.30;;;;;;5080116;28;20126;-73
2021/06/09 03:16:56;;;;;;;7.07;5.90;;;16.90;87.90;;;;;;5081967;28;20078;-73
2021/06/09 03:19:56;;;;;;;6.80;6.05;;;16.90;87.80;;;;;;5082016;28;20029;-73
2021/06/09 03:22:33;;;;;;;6.25;5.65;;;16.90;87.10;;;;;;5074842;28;20633;-73
2021/06/09 03:25:01;;;;;;;7.85;6.40;;;17.00;87.30;;;;;;5082123;28;20016;-73
2021/06/09 03:27:47;;;;;;;8.10;6.43;;;17.00;87.30;;;;;;5083463;28;21767;-73
2021/06/09 03:30:14;;;;;;;6.63;5.85;;;17.00;87.10;;;;;;5083804;28;20425;-73
2021/06/09 03:32:49;;;;;;;7.75;5.97;;;17.10;87.20;;;;;;5083345;28;20020;-73
2021/06/09 03:35:23;;;;;;;7.40;5.90;;;17.10;86.90;;;;;;5077555;28;20504;-72
2021/06/09 03:37:52;;;;;;;7.68;5.70;;;17.10;86.70;;;;;;5082776;28;20036;-73
2021/06/09 03:40:28;;;;;;;6.25;5.35;;;17.20;86.70;;;;;;5080958;28;22232;-73
2021/06/09 03:42:58;;;;;;;8.27;5.95;;;17.30;86.80;;;;;;5081951;28;20089;-73
2021/06/09 03:45:30;;;;;;;6.80;5.18;;;17.30;86.70;;;;;;5078902;28;20520;-73
2021/06/09 03:47:56;;;;;;;6.60;5.50;;;17.40;86.50;;;;;;5083068;28;20115;-73
2021/06/09 03:50:24;;;;;;;6.70;5.38;;;17.40;86.20;;;;;;5082490;28;20089;-73
2021/06/09 03:52:50;;;;;;;7.40;5.80;;;17.50;86.10;;;;;;5082777;28;20401;-73
2021/06/09 03:55:25;;;;;;;7.10;5.00;;;17.50;85.50;;;;;;5081533;28;20483;-73
2021/06/09 03:57:53;;;;;;;6.90;5.63;;;17.60;85.80;;;;;;5083080;28;20494;-73
2021/06/09 04:00:21;;;;;;;5.72;5.07;;;17.60;85.60;;;;;;5081307;28;20392;-73
2021/06/09 04:02:48;;;;;;;6.72;5.32;;;17.70;85.60;;;;;;5080766;28;20337;-73
2021/06/09 04:05:14;;;;;;;6.82;5.30;;;17.70;85.30;;;;;;5077077;28;20117;-73
2021/06/09 04:07:43;;;;;;;6.88;4.82;;;17.80;85.20;;;;;;5083718;28;20032;-73
2021/06/09 04:10:10;;;;;;;5.50;4.90;;;17.90;85.10;;;;;;5081681;28;20036;-73
2021/06/09 04:12:38;;;;;;;8.18;4.57;;;17.90;85.00;;;;;;5082851;28;20705;-73
2021/06/09 04:15:04;;;;;;;5.90;4.93;;;18.00;84.80;;;;;;5081300;28;20048;-73
2021/06/09 04:17:32;;;;;;;6.47;5.63;;;18.10;84.50;;;;;;5080557;28;20031;-73
2021/06/09 04:20:01;;;;;;;5.75;4.70;;;18.10;83.90;;;;;;5078647;28;20111;-73
2021/06/09 04:22:27;;;;;;;5.72;4.72;;;18.10;83.50;;;;;;5075386;28;20070;-73
2021/06/09 04:24:53;;;;;;;5.20;4.53;;;18.20;83.50;;;;;;5081628;28;20032;-72
2021/06/09 04:27:27;;;;;;;6.50;5.07;;;18.20;83.20;;;;;;5077377;28;20078;-73
2021/06/09 04:29:56;;;;;;;6.50;5.22;;;18.30;82.80;;;;;;5081017;28;20116;-73
2021/06/09 04:32:23;;;;;;;6.03;4.93;;;18.40;82.50;;;;;;5083282;28;21222;-73
2021/06/09 04:34:50;;;;;;;6.20;4.85;;;18.40;82.40;;;;;;5081582;28;20402;-73
2021/06/09 04:37:18;;;;;;;4.72;4.22;;;18.40;82.50;;;;;;5082405;28;20083;-72
2021/06/09 04:39:47;;;;;;;5.35;4.47;;;18.50;82.60;;;;;;5086649;28;20074;-73
2021/06/09 04:42:13;;;;;;;5.13;4.45;;;18.60;82.40;;;;;;5080114;28;20059;-73
2021/06/09 04:44:40;;;;;;;6.45;5.40;;;18.70;82.30;;;;;;5084932;28;20053;-73
2021/06/09 04:47:07;;;;;;;6.18;4.82;;;18.70;81.90;;;;;;5086971;28;20050;-73
2021/06/09 04:49:35;;;;;;;6.47;5.10;;;18.80;81.70;;;;;;5086510;28;20062;-73
2021/06/09 04:52:02;;;;;;;5.20;4.40;;;18.90;81.30;;;;;;5084712;28;20066;-73
2021/06/09 04:54:28;;;;;;;6.53;4.72;;;18.90;81.30;;;;;;5086066;28;20093;-72
2021/06/09 04:56:54;;;;;;;6.30;4.60;;;19.00;81.20;;;;;;5087029;28;20491;-73
2021/06/09 04:59:20;;;;;;;5.38;4.63;;;19.10;80.90;;;;;;5084659;28;20124;-73
2021/06/09 05:01:46;;;;;;;5.70;4.90;;;19.10;80.30;;;;;;5085717;28;20126;-73
2021/06/09 05:04:12;;;;;;;6.00;4.70;;;19.20;80.30;;;;;;5085554;28;20173;-72
2021/06/09 05:06:37;;;;;;;5.63;4.72;;;19.30;80.30;;;;;;5085886;28;20071;-73
2021/06/09 05:09:05;;;;;;;5.32;4.60;;;19.30;80.40;;;;;;5085638;28;20058;-73
2021/06/09 05:11:57;;;;;;;6.10;4.75;;;19.40;80.40;;;;;;5090297;28;20115;-73
2021/06/09 05:14:30;;;;;;;6.85;5.07;;;19.50;79.90;;;;;;5086135;28;20063;-73
2021/06/09 05:16:58;;;;;;;6.68;5.15;;;19.50;79.50;;;;;;5085157;28;20077;-73
2021/06/09 05:19:28;;;;;;;6.60;5.07;;;19.60;79.10;;;;;;5084004;28;20496;-73
2021/06/09 05:22:03;;;;;;;6.40;5.07;;;19.60;78.80;;;;;;5083744;28;20461;-73
2021/06/09 05:24:31;;;;;;;5.82;4.88;;;19.70;79.10;;;;;;5086208;28;20028;-73
2021/06/09 05:26:57;;;;;;;5.05;4.15;;;19.70;79.20;;;;;;5085931;28;20032;-73
2021/06/09 05:29:25;;;;;;;5.85;5.03;;;19.80;79.20;;;;;;5084848;28;20393;-73
2021/06/09 05:31:54;;;;;;;4.63;4.10;;;19.90;78.90;;;;;;5081697;28;20113;-74
2021/06/09 05:34:22;;;;;;;6.40;4.47;;;20.00;78.20;;;;;;5076099;28;22388;-73
2021/06/09 05:36:49;;;;;;;6.00;5.05;;;20.00;78.10;;;;;;5073062;28;20024;-73
2021/06/09 05:39:17;;;;;;;6.53;5.10;;;20.10;77.60;;;;;;5079238;28;20023;-74
2021/06/09 05:41:44;;;;;;;5.70;5.07;;;20.20;76.90;;;;;;5077266;28;20036;-74
2021/06/09 05:44:14;;;;;;;6.80;5.20;;;20.20;76.70;;;;;;5081890;28;20025;-74
2021/06/09 05:46:40;;;;;;;5.13;4.63;;;20.20;76.90;;;;;;5071437;28;20036;-73
2021/06/09 05:49:06;;;;;;;5.60;4.95;;;20.30;76.70;;;;;;5079328;28;20043;-73
2021/06/09 05:51:32;;;;;;;5.68;4.80;;;20.30;76.00;;;;;;5093438;28;20093;-73
2021/06/09 05:53:58;;;;;;;5.50;4.47;;;20.30;76.00;;;;;;5077513;28;20056;-73
2021/06/09 05:56:24;;;;;;;4.72;3.97;;;20.30;75.90;;;;;;5069547;28;20032;-73
2021/06/09 05:58:50;;;;;;;5.78;4.25;;;20.40;75.80;;;;;;5079305;28;20048;-73
2021/06/09 06:01:16;;;;;;;5.10;4.47;;;20.50;76.10;;;;;;5079058;28;20392;-72
2021/06/09 06:03:44;;;;;;;5.20;4.70;;;20.50;75.40;;;;;;5079490;28;20067;-78
2021/06/09 06:06:15;;;;;;;6.50;5.03;;;20.60;75.10;;;;;;5071697;28;20063;-76
2021/06/09 06:08:43;;;;;;;5.25;4.57;;;20.70;74.50;;;;;;5078842;28;20512;-76
2021/06/09 06:11:14;;;;;;;5.18;4.68;;;20.70;74.50;;;;;;5065030;28;20039;-76
2021/06/09 06:13:42;;;;;;;5.28;4.57;;;20.80;74.10;;;;;;5064394;28;20390;-76
2021/06/09 06:16:08;;;;;;;5.80;4.78;;;20.80;73.70;;;;;;5063948;28;20040;-76
2021/06/09 06:18:36;;;;;;;6.57;4.88;;;20.90;73.90;;;;;;5068216;28;20032;-75
2021/06/09 06:21:07;;;;;;;5.15;4.38;;;21.00;73.50;;;;;;5060908;28;20596;-78
2021/06/09 06:23:33;;;;;;;4.97;4.05;;;21.00;73.40;;;;;;5056587;28;20055;-74
2021/06/09 06:25:59;;;;;;;5.03;4.53;;;21.10;73.50;;;;;;5059986;28;20509;-77
2021/06/09 06:28:25;;;;;;;4.70;4.20;;;21.10;72.90;;;;;;5046371;28;20089;-76
2021/06/09 06:30:52;;;;;;;4.70;4.30;;;21.10;73.00;;;;;;5034952;28;20641;-74
2021/06/09 06:33:22;;;;;;;5.32;4.65;;;21.20;72.10;;;;;;5042263;28;20573;-75
2021/06/09 06:35:49;;;;;;;5.85;3.92;;;21.30;71.50;;;;;;5056972;28;20823;-75
2021/06/09 06:38:16;;;;;;;5.60;4.50;;;21.30;71.30;;;;;;5062780;28;20821;-75
2021/06/09 06:40:42;;;;;;;4.82;4.22;;;21.40;70.80;;;;;;5066588;28;20033;-74
2021/06/09 06:43:09;;;;;;;4.50;4.05;;;21.40;70.10;;;;;;5065502;28;20059;-73
2021/06/09 06:45:34;;;;;;;5.15;4.20;;;21.50;70.40;;;;;;5068216;28;20036;-77
2021/06/09 06:48:01;;;;;;;4.93;3.80;;;21.60;70.20;;;;;;5067232;28;20047;-75
2021/06/09 06:50:27;;;;;;;5.95;3.80;;;21.60;69.60;;;;;;5066733;28;20035;-75
2021/06/09 06:52:53;;;;;;;4.90;3.90;;;21.70;69.70;;;;;;5067269;28;20115;-76
2021/06/09 06:55:22;;;;;;;4.82;3.72;;;21.80;69.40;;;;;;5062136;28;20481;-75
2021/06/09 06:57:49;;;;;;;3.97;3.55;;;21.80;69.00;;;;;;5063769;28;20028;-75
2021/06/09 07:00:20;;;;;;;4.47;3.63;;;21.90;68.90;;;;;;5064447;28;20089;-75
2021/06/09 07:02:48;;;;;;;5.32;4.32;;;21.90;68.70;;;;;;5065839;28;20649;-75
2021/06/09 07:05:15;;;;;;;4.65;4.13;;;21.90;67.40;;;;;;5060969;28;20039;-74
2021/06/09 07:07:42;;;;;;;4.38;3.90;;;21.90;66.90;;;;;;5065962;28;20105;-74
2021/06/09 07:10:10;;;;;;;4.72;3.70;;;21.90;66.80;;;;;;5062563;28;20036;-74
2021/06/09 07:12:40;;;;;;;4.10;3.65;;;21.90;67.20;;;;;;5065556;28;20055;-74
2021/06/09 07:15:08;;;;;;;5.07;3.90;;;22.00;67.30;;;;;;5066131;28;20028;-75
2021/06/09 07:17:58;;;;;;;4.88;3.78;;;22.00;66.40;;;;;;5066157;28;20640;-77
2021/06/09 07:20:26;;;;;;;3.90;3.25;;;22.10;64.70;;;;;;5059199;28;20101;-74
2021/06/09 07:22:53;;;;;;;4.35;3.42;;;22.10;65.70;;;;;;5059712;28;20048;-74
2021/06/09 07:25:20;;;;;;;3.60;3.20;;;22.10;65.80;;;;;;5061318;28;20738;-74
2021/06/09 07:27:50;;;;;;;4.40;3.30;;;22.20;65.60;;;;;;5059189;28;21676;-74
2021/06/09 07:30:17;;;;;;;4.80;3.60;;;22.30;65.30;;;;;;5067921;28;20063;-74
2021/06/09 07:32:45;;;;;;;4.60;3.50;;;22.40;65.30;;;;;;5061756;28;20764;-75
2021/06/09 07:35:13;;;;;;;4.97;3.72;;;22.50;64.10;;;;;;5058911;28;20024;-74
2021/06/09 07:37:45;;;;;;;4.75;3.63;;;22.50;64.00;;;;;;5048743;28;20047;-72
2021/06/09 07:40:17;;;;;;;5.22;4.10;;;22.50;62.80;;;;;;5057097;28;20028;-74
2021/06/09 07:42:48;;;;;;;4.28;3.63;;;22.50;63.80;;;;;;5061910;28;20071;-73
2021/06/09 07:45:16;;;;;;;4.40;3.33;;;22.60;63.10;;;;;;5060848;28;20040;-74
2021/06/09 07:47:45;;;;;;;6.10;3.78;;;22.60;63.20;;;;;;5062758;28;20036;-75
2021/06/09 07:50:14;;;;;;;4.28;3.50;;;22.60;63.10;;;;;;5054585;28;20092;-78
2021/06/09 07:52:45;;;;;;;5.10;3.95;;;22.60;63.40;;;;;;5060161;28;20654;-75
2021/06/09 07:55:13;;;;;;;4.63;3.55;;;22.70;63.40;;;;;;5061730;28;20021;-75
2021/06/09 07:57:42;;;;;;;4.70;3.72;;;22.80;63.50;;;;;;5063614;28;20448;-77
2021/06/09 08:00:12;;;;;;;4.28;3.50;;;22.80;63.30;;;;;;5063814;28;20037;-77
2021/06/09 08:02:40;;;;;;;3.85;3.33;;;22.80;62.80;;;;;;5070070;28;20300;-75
2021/06/09 08:05:07;;;;;;;4.20;3.80;;;22.90;63.50;;;;;;5061409;28;20043;-75
2021/06/09 08:07:39;;;;;;;5.97;3.70;;;23.00;62.60;;;;;;5064828;28;20048;-75
2021/06/09 08:10:10;;;;;;;3.20;2.90;;;23.00;63.30;;;;;;5056995;28;20139;-75
2021/06/09 08:12:37;;;;;;;3.60;3.00;;;23.00;62.00;;;;;;5059036;28;20031;-74
2021/06/09 08:15:06;;;;;;;4.07;3.28;;;23.00;62.50;;;;;;5056825;28;20035;-74
2021/06/09 08:17:32;;;;;;;4.10;3.30;;;23.10;62.60;;;;;;5052299;28;20040;-73
2021/06/09 08:19:57;;;;;;;3.67;3.05;;;23.20;62.40;;;;;;5049239;28;20795;-74
2021/06/09 08:22:23;;;;;;;4.10;3.25;;;23.30;62.50;;;;;;5052680;28;20098;-73
2021/06/09 08:24:49;;;;;;;3.92;3.45;;;23.40;62.80;;;;;;5052900;28;20024;-74
2021/06/09 08:27:16;;;;;;;3.78;3.38;;;23.50;61.40;;;;;;5056143;28;20031;-73
2021/06/09 08:29:42;;;;;;;3.67;3.25;;;23.50;60.60;;;;;;5049660;28;20115;-71
2021/06/09 08:32:08;;;;;;;3.40;3.10;;;23.60;61.10;;;;;;5051242;28;20614;-71
2021/06/09 08:34:34;;;;;;;4.18;3.40;;;23.60;61.10;;;;;;5057883;28;21003;-71
2021/06/09 08:37:00;;;;;;;3.50;3.20;;;23.60;60.90;;;;;;5060553;28;20028;-71
2021/06/09 08:39:27;;;;;;;3.75;3.17;;;23.70;60.70;;;;;;5054601;28;20032;-70
2021/06/09 08:41:55;;;;;;;3.45;3.03;;;23.80;61.20;;;;;;5052897;28;20032;-70
2021/06/09 08:44:22;;;;;;;5.03;3.20;;;23.90;60.90;;;;;;5051848;28;20116;-72
2021/06/09 08:46:48;;;;;;;3.78;3.15;;;23.90;60.90;;;;;;5054977;28;20469;-71
2021/06/09 08:49:17;;;;;;;3.50;3.20;;;24.00;60.70;;;;;;5063721;28;20021;-74
2021/06/09 08:51:43;;;;;;;3.88;3.15;;;24.00;60.70;;;;;;5058098;28;20074;-74
2021/06/09 08:54:09;;;;;;;3.58;3.10;;;24.00;60.10;;;;;;5056948;28;20071;-74
2021/06/09 08:56:37;;;;;;;3.78;3.20;;;24.00;60.10;;;;;;5053305;28;20054;-74
2021/06/09 08:59:04;;;;;;;3.83;3.40;;;24.00;59.90;;;;;;5058637;28;20874;-75
2021/06/09 09:01:32;;;;;;;4.28;2.90;;;24.10;59.70;;;;;;5059038;28;20038;-76
2021/06/09 09:03:58;;;;;;;3.50;3.10;;;24.10;59.80;;;;;;5057620;28;20032;-75
2021/06/09 09:06:24;;;;;;;3.30;3.00;;;24.20;59.60;;;;;;5075398;28;20166;-74
2021/06/09 09:08:53;;;;;;;4.40;3.30;;;24.20;59.10;;;;;;5050445;28;20036;-72
2021/06/09 09:11:22;;;;;;;3.28;2.97;;;24.30;58.90;;;;;;5053954;28;20820;-72
2021/06/09 09:13:48;;;;;;;3.38;3.08;;;24.30;58.70;;;;;;5054070;28;20032;-72
2021/06/09 09:16:14;;;;;;;3.30;3.00;;;24.30;58.80;;;;;;5051131;28;20076;-74
2021/06/09 09:18:46;;;;;;;3.85;3.22;;;24.30;58.60;;;;;;5056850;28;20500;-74
2021/06/09 09:21:14;;;;;;;3.73;2.80;;;24.30;58.70;;;;;;5062523;28;20074;-76
2021/06/09 09:23:48;;;;;;;3.70;3.30;;;24.30;58.70;;;;;;5061581;28;20365;-76
2021/06/09 09:26:29;;;;;;;3.17;2.88;;;24.30;58.30;;;;;;5049927;28;20056;-73
2021/06/09 09:29:19;;;;;;;3.00;2.70;;;24.40;57.20;;;;;;5062858;28;20448;-74
2021/06/09 09:31:48;;;;;;;3.63;2.65;;;24.50;56.70;;;;;;5057098;28;20035;-74
2021/06/09 09:34:44;;;;;;;3.92;3.40;;;24.60;58.20;;;;;;5058568;28;20024;-74
2021/06/09 09:37:20;;;;;;;2.90;2.60;;;24.70;57.50;;;;;;5064933;28;20024;-74
2021/06/09 09:39:51;;;;;;;3.72;2.70;;;24.70;56.60;;;;;;5059147;28;20508;-74
2021/06/09 09:42:31;;;;;;;3.08;2.78;;;24.70;57.60;;;;;;5063736;28;20481;-75
2021/06/09 09:45:28;;;;;;;4.75;2.70;;;24.80;57.40;;;;;;5058993;28;20645;-75
2021/06/09 09:48:06;;;;;;;2.78;2.55;;;24.90;55.90;;;;;;5056043;28;20028;-76
2021/06/09 09:50:34;;;;;;;2.97;2.67;;;24.90;57.10;;;;;;5064109;28;20054;-74
2021/06/09 09:53:17;;;;;;;3.60;2.92;;;25.00;56.30;;;;;;5061154;28;20043;-74
2021/06/09 09:56:03;;;;;;;4.35;2.85;;;25.00;56.10;;;;;;5062289;28;20075;-74
2021/06/09 09:58:31;;;;;;;2.90;2.60;;;25.00;55.60;;;;;;5064744;28;24124;-75
2021/06/09 10:01:11;;;;;;;3.30;2.65;;;25.10;56.20;;;;;;5061273;28;20033;-76
2021/06/09 10:03:39;;;;;;;3.40;2.65;;;25.30;55.90;;;;;;5057892;28;20399;-73
2021/06/09 10:06:21;;;;;;;3.00;2.63;;;25.40;57.10;;;;;;5061928;28;20052;-74
2021/06/09 10:08:48;;;;;;;3.03;2.60;;;25.50;55.20;;;;;;5064009;28;20040;-72
2021/06/09 10:11:16;;;;;;;2.92;2.67;;;25.50;55.70;;;;;;5059198;28;20089;-72
2021/06/09 10:13:42;;;;;;;3.33;2.45;;;25.60;55.60;;;;;;5071355;28;20070;-72
2021/06/09 10:16:24;;;;;;;4.00;2.95;;;25.60;55.30;;;;;;5069142;28;20028;-73
2021/06/09 10:19:06;;;;;;;3.20;2.90;;;25.70;54.30;;;;;;5062124;28;20035;-73
2021/06/09 10:21:34;;;;;;;2.75;2.55;;;25.70;54.20;;;;;;5064001;28;20035;-71
2021/06/09 10:24:09;;;;;;;2.80;2.60;;;25.80;54.70;;;;;;5058685;28;20496;-71
2021/06/09 10:26:38;;;;;;;3.78;2.42;;;25.80;54.10;;;;;;5063139;28;20082;-71
2021/06/09 10:29:08;;;;;;;3.55;2.58;;;25.80;52.80;;;;;;5064624;28;20055;-71
2021/06/09 10:31:39;;;;;;;2.58;2.38;;;25.80;51.60;;;;;;5057519;28;20489;-71
2021/06/09 10:34:05;;;;;;;2.80;2.50;;;25.80;53.40;;;;;;5065493;28;20028;-71
2021/06/09 10:36:44;;;;;;;2.78;2.45;;;25.80;53.10;;;;;;5062414;28;20043;-72
2021/06/09 10:39:11;;;;;;;2.88;2.60;;;25.90;53.40;;;;;;5060133;28;20595;-71
2021/06/09 10:41:42;;;;;;;2.55;2.35;;;25.90;53.70;;;;;;5058543;28;20165;-71
2021/06/09 10:44:08;;;;;;;3.47;2.80;;;26.00;53.40;;;;;;5059000;28;20028;-73
2021/06/09 10:46:38;;;;;;;4.00;2.50;;;26.10;53.60;;;;;;5062971;28;20025;-72
2021/06/09 10:49:05;;;;;;;5.15;2.40;;;26.20;53.80;;;;;;5057166;28;20035;-72
2021/06/09 10:51:31;;;;;;;3.42;2.83;;;26.30;53.60;;;;;;5057119;28;20093;-71
2021/06/09 10:53:59;;;;;;;5.28;2.92;;;26.40;53.10;;;;;;5052722;28;20770;-72
2021/06/09 10:56:26;;;;;;;4.05;3.03;;;26.40;52.70;;;;;;5055477;28;20031;-72
2021/06/09 10:58:52;;;;;;;4.57;3.15;;;26.40;52.50;;;;;;5055011;28;20493;-72
2021/06/09 11:01:22;;;;;;;3.83;3.00;;;26.40;52.70;;;;;;5061643;28;20035;-72
2021/06/09 11:03:49;;;;;;;3.80;2.97;;;26.50;51.90;;;;;;5069494;28;20182;-73
2021/06/09 11:06:15;;;;;;;3.30;2.97;;;26.40;52.30;;;;;;5067201;28;20570;-72
2021/06/09 11:08:40;;;;;;;2.72;2.53;;;26.50;52.50;;;;;;5061846;28;20060;-72
2021/06/09 11:11:18;;;;;;;4.03;3.08;;;26.50;52.70;;;;;;5057872;28;20125;-72
2021/06/09 11:13:47;;;;;;;3.10;2.80;;;26.50;50.60;;;;;;5058503;28;20028;-72
2021/06/09 11:16:17;;;;;;;3.55;3.25;;;26.50;52.20;;;;;;5057726;28;20824;-72
2021/06/09 11:18:46;;;;;;;3.13;2.83;;;26.60;52.20;;;;;;5054751;28;20024;-72
2021/06/09 11:21:15;;;;;;;3.05;2.72;;;26.70;52.20;;;;;;5063180;28;20039;-72
2021/06/09 11:23:42;;;;;;;2.83;2.63;;;26.80;52.90;;;;;;5067159;28;20085;-73
2021/06/09 11:26:29;;;;;;;4.32;3.00;;;26.90;52.60;;;;;;5066692;28;20070;-73
2021/06/09 11:28:56;;;;;;;3.65;2.90;;;26.90;52.10;;;;;;5058315;28;20039;-73
2021/06/09 11:31:26;;;;;;;3.15;2.85;;;26.70;52.40;;;;;;5041700;28;20751;-73
2021/06/09 11:34:02;;;;;;;2.92;2.72;;;26.50;52.10;;;;;;5046814;28;20032;-73
2021/06/09 11:36:34;;;;;;;3.33;2.50;;;26.40;53.00;;;;;;5054033;28;20028;-73
2021/06/09 11:39:16;;;;;;;2.67;2.47;;;26.30;51.70;;;;;;5047670;28;20028;-73
2021/06/09 11:41:44;;;;;;;2.60;2.40;;;26.30;48.50;;;;;;5049822;28;20040;-72
2021/06/09 11:44:34;;;;;;;2.90;2.60;;;26.30;50.50;;;;;;5070685;27;20086;-74
2021/06/09 11:47:18;;;;;;;2.75;2.55;;;26.30;49.90;;;;;;5055120;28;20627;-72
2021/06/09 11:49:45;;;;;;;3.42;2.80;;;26.30;50.00;;;;;;5056502;28;20068;-73
2021/06/09 11:52:10;;;;;;;3.20;2.90;;;26.30;51.10;;;;;;5060434;28;20020;-74
2021/06/09 11:54:37;;;;;;;2.95;2.65;;;26.30;51.30;;;;;;5058593;28;20032;-73
2021/06/09 11:57:06;;;;;;;3.42;3.13;;;26.40;51.80;;;;;;5055167;28;20053;-72
2021/06/09 11:59:35;;;;;;;3.30;3.00;;;26.50;51.90;;;;;;5056833;28;20137;-72
2021/06/09 12:02:10;;;;;;;4.05;3.33;;;26.40;52.10;;;;;;5038614;28;21324;-72
2021/06/09 12:04:44;;;;;;;3.50;3.10;;;26.30;52.10;;;;;;5051425;28;20564;-72
2021/06/09 12:07:18;;;;;;;3.92;3.30;;;26.30;52.50;;;;;;5063897;28;20400;-73
2021/06/09 12:09:45;;;;;;;3.45;3.00;;;26.40;53.00;;;;;;5056897;28;20028;-73
2021/06/09 12:12:21;;;;;;;3.58;3.28;;;26.50;53.20;;;;;;5056044;28;20433;-72
2021/06/09 12:14:55;;;;;;;3.47;3.17;;;26.70;52.70;;;;;;5047586;28;20051;-74
2021/06/09 12:17:51;;;;;;;3.50;3.20;;;26.80;52.50;;;;;;5049730;28;20036;-73
2021/06/09 12:20:19;;;;;;;4.45;3.53;;;26.90;50.30;;;;;;5037552;28;20105;-74
2021/06/09 12:22:47;;;;;;;3.33;3.03;;;27.00;51.20;;;;;;5063071;28;21550;-73
2021/06/09 12:25:14;;;;;;;5.05;3.33;;;27.10;51.40;;;;;;5065257;28;20111;-73
2021/06/09 12:27:43;;;;;;;3.38;3.08;;;27.50;51.70;;;;;;5060076;28;20032;-73
2021/06/09 12:30:27;;;;;;;3.33;3.03;;;27.90;51.00;;;;;;5059648;28;20032;-72
2021/06/09 12:32:53;;;;;;;3.55;3.05;;;28.50;49.50;;;;;;5078343;28;20055;-72
2021/06/09 12:35:20;;;;;;;2.88;2.67;;;29.10;50.80;;;;;;5059468;28;20492;-72
2021/06/09 12:37:56;;;;;;;3.55;3.25;;;29.80;50.80;;;;;;5053521;28;20035;-72
2021/06/09 12:40:48;;;;;;;3.50;3.20;;;30.60;48.50;;;;;;5058813;28;20066;-73
2021/06/09 12:43:14;;;;;;;3.40;3.10;;;31.30;44.60;;;;;;5051540;28;20047;-72
2021/06/09 12:45:45;;;;;;;3.22;2.90;;;31.80;46.80;;;;;;5055352;28;20091;-71
2021/06/09 12:48:13;;;;;;;3.20;2.90;;;32.40;45.10;;;;;;5060677;28;22480;-73
2021/06/09 12:50:41;;;;;;;3.63;2.88;;;32.90;46.00;;;;;;5053182;28;20024;-72
2021/06/09 12:53:16;;;;;;;3.35;3.00;;;33.40;45.00;;;;;;5054548;28;20028;-72
2021/06/09 12:56:00;;;;;;;4.10;3.00;;;33.90;42.00;;;;;;5049653;28;20024;-72
2021/06/09 12:58:29;;;;;;;3.78;2.90;;;33.90;42.00;;;;;;5057953;28;20598;-72
2021/06/09 13:00:56;;;;;;;2.97;2.20;;;33.80;44.20;;;;;;5065631;28;20123;-72
2021/06/09 13:03:39;;;;;;;3.15;1.60;;;32.70;45.20;;;;;;5062904;28;20082;-73
2021/06/09 13:06:07;;;;;;;2.10;1.90;;;31.50;45.50;;;;;;5047537;28;20049;-72